sensor_id;sensor_type;location;lat;lon;timestamp;temperature;humidity
14188;DHT22;7175;51.978;5.330;2023-11-19T00:00:19;14.60;99.90
14188;DHT22;7175;51.978;5.330;2023-11-19T00:02:49;14.60;99.90
14188;DHT22;7175;51.978;5.330;2023-11-19T00:05:17;14.70;99.90
14188;DHT22;7175;51.978;5.330;2023-11-19T00:07:45;14.60;99.90
14188;DHT22;7175;51.978;5.330;2023-11-19T00:10:16;14.70;99.90
14188;DHT22;7175;51.978;5.330;2023-11-19T00:12:46;14.60;99.90
14188;DHT22;7175;51.978;5.330;2023-11-19T00:15:16;14.60;99.90
14188;DHT22;7175;51.978;5.330;2023-11-19T00:17:47;14.60;99.90
14188;DHT22;7175;51.978;5.330;2023-11-19T00:20:17;14.60;99.90
14188;DHT22;7175;51.978;5.330;2023-11-19T00:22:45;14.60;99.90
14188;DHT22;7175;51.978;5.330;2023-11-19T00:25:18;14.50;99.90
14188;DHT22;7175;51.978;5.330;2023-11-19T00:27:46;14.60;99.90
14188;DHT22;7175;51.978;5.330;2023-11-19T00:30:15;14.60;99.90
14188;DHT22;7175;51.978;5.330;2023-11-19T00:32:43;14.50;99.90
14188;DHT22;7175;51.978;5.330;2023-11-19T00:35:12;14.60;99.90
14188;DHT22;7175;51.978;5.330;2023-11-19T00:37:42;14.50;99.90
14188;DHT22;7175;51.978;5.330;2023-11-19T00:40:12;14.50;99.90
14188;DHT22;7175;51.978;5.330;2023-11-19T00:42:45;14.50;99.90
14188;DHT22;7175;51.978;5.330;2023-11-19T00:45:13;14.50;99.90
14188;DHT22;7175;51.978;5.330;2023-11-19T00:47:41;14.50;99.90
14188;DHT22;7175;51.978;5.330;2023-11-19T00:50:10;14.50;99.90
14188;DHT22;7175;51.978;5.330;2023-11-19T00:52:40;14.50;99.90
14188;DHT22;7175;51.978;5.330;2023-11-19T00:55:08;14.50;99.90
14188;DHT22;7175;51.978;5.330;2023-11-19T00:57:36;14.50;99.90
14188;DHT22;7175;51.978;5.330;2023-11-19T01:00:08;14.50;99.90
14188;DHT22;7175;51.978;5.330;2023-11-19T01:02:46;14.50;99.90
14188;DHT22;7175;51.978;5.330;2023-11-19T01:05:18;14.50;99.90
14188;DHT22;7175;51.978;5.330;2023-11-19T01:07:48;14.50;99.90
14188;DHT22;7175;51.978;5.330;2023-11-19T01:10:17;14.50;99.90
14188;DHT22;7175;51.978;5.330;2023-11-19T01:12:45;14.50;99.90
14188;DHT22;7175;51.978;5.330;2023-11-19T01:15:15;14.60;99.90
14188;DHT22;7175;51.978;5.330;2023-11-19T01:17:46;14.50;99.90
14188;DHT22;7175;51.978;5.330;2023-11-19T01:20:17;14.60;99.90
14188;DHT22;7175;51.978;5.330;2023-11-19T01:22:45;14.50;99.90
14188;DHT22;7175;51.978;5.330;2023-11-19T01:25:15;14.50;99.90
14188;DHT22;7175;51.978;5.330;2023-11-19T01:27:43;14.50;99.90
14188;DHT22;7175;51.978;5.330;2023-11-19T01:30:12;14.50;99.90
14188;DHT22;7175;51.978;5.330;2023-11-19T01:32:42;14.50;99.90
14188;DHT22;7175;51.978;5.330;2023-11-19T01:35:11;14.50;99.90
14188;DHT22;7175;51.978;5.330;2023-11-19T01:37:39;14.50;99.90
14188;DHT22;7175;51.978;5.330;2023-11-19T01:40:07;14.50;99.90
14188;DHT22;7175;51.978;5.330;2023-11-19T01:42:38;14.50;99.90
14188;DHT22;7175;51.978;5.330;2023-11-19T01:45:07;14.40;99.90
14188;DHT22;7175;51.978;5.330;2023-11-19T01:47:37;14.40;99.90
14188;DHT22;7175;51.978;5.330;2023-11-19T01:50:08;14.30;99.90
14188;DHT22;7175;51.978;5.330;2023-11-19T01:52:37;14.30;99.90
14188;DHT22;7175;51.978;5.330;2023-11-19T01:55:06;14.30;99.90
14188;DHT22;7175;51.978;5.330;2023-11-19T01:57:37;14.30;99.90
14188;DHT22;7175;51.978;5.330;2023-11-19T02:00:09;14.20;99.90
14188;DHT22;7175;51.978;5.330;2023-11-19T02:02:40;14.20;99.90
14188;DHT22;7175;51.978;5.330;2023-11-19T02:05:11;14.10;99.90
14188;DHT22;7175;51.978;5.330;2023-11-19T02:07:40;14.10;99.90
14188;DHT22;7175;51.978;5.330;2023-11-19T02:10:08;14.00;99.90
14188;DHT22;7175;51.978;5.330;2023-11-19T02:12:41;13.90;99.90
14188;DHT22;7175;51.978;5.330;2023-11-19T02:15:11;13.90;99.90
14188;DHT22;7175;51.978;5.330;2023-11-19T02:17:39;13.80;99.90
14188;DHT22;7175;51.978;5.330;2023-11-19T02:20:08;13.80;99.90
14188;DHT22;7175;51.978;5.330;2023-11-19T02:22:40;13.70;99.90
14188;DHT22;7175;51.978;5.330;2023-11-19T02:25:12;13.70;99.90
14188;DHT22;7175;51.978;5.330;2023-11-19T02:27:52;13.70;99.90
14188;DHT22;7175;51.978;5.330;2023-11-19T02:30:23;13.70;99.90
14188;DHT22;7175;51.978;5.330;2023-11-19T02:32:53;13.60;99.90
14188;DHT22;7175;51.978;5.330;2023-11-19T02:35:25;13.60;99.90
14188;DHT22;7175;51.978;5.330;2023-11-19T02:37:54;13.60;99.90
14188;DHT22;7175;51.978;5.330;2023-11-19T02:40:22;13.50;99.90
14188;DHT22;7175;51.978;5.330;2023-11-19T02:42:53;13.50;99.90
14188;DHT22;7175;51.978;5.330;2023-11-19T02:45:22;13.50;99.90
14188;DHT22;7175;51.978;5.330;2023-11-19T02:47:51;13.40;99.90
14188;DHT22;7175;51.978;5.330;2023-11-19T02:50:20;13.40;99.90
14188;DHT22;7175;51.978;5.330;2023-11-19T02:52:53;13.30;99.90
14188;DHT22;7175;51.978;5.330;2023-11-19T02:55:24;13.30;99.90
14188;DHT22;7175;51.978;5.330;2023-11-19T02:57:56;13.30;99.90
14188;DHT22;7175;51.978;5.330;2023-11-19T03:00:26;13.30;99.90
14188;DHT22;7175;51.978;5.330;2023-11-19T03:03:03;13.30;99.90
14188;DHT22;7175;51.978;5.330;2023-11-19T03:05:45;13.30;99.90
14188;DHT22;7175;51.978;5.330;2023-11-19T03:08:14;13.20;99.90
14188;DHT22;7175;51.978;5.330;2023-11-19T03:10:46;13.20;99.90
14188;DHT22;7175;51.978;5.330;2023-11-19T03:13:17;13.20;99.90
14188;DHT22;7175;51.978;5.330;2023-11-19T03:15:45;13.10;99.90
14188;DHT22;7175;51.978;5.330;2023-11-19T03:18:13;13.10;99.90
14188;DHT22;7175;51.978;5.330;2023-11-19T03:20:42;13.10;99.90
14188;DHT22;7175;51.978;5.330;2023-11-19T03:23:10;13.00;99.90
14188;DHT22;7175;51.978;5.330;2023-11-19T03:25:38;13.00;99.90
14188;DHT22;7175;51.978;5.330;2023-11-19T03:28:06;13.00;99.90
14188;DHT22;7175;51.978;5.330;2023-11-19T03:30:36;13.00;99.90
14188;DHT22;7175;51.978;5.330;2023-11-19T03:33:06;13.00;99.90
14188;DHT22;7175;51.978;5.330;2023-11-19T03:35:35;13.00;99.90
14188;DHT22;7175;51.978;5.330;2023-11-19T03:38:03;12.90;99.90
14188;DHT22;7175;51.978;5.330;2023-11-19T03:40:31;12.80;99.90
14188;DHT22;7175;51.978;5.330;2023-11-19T03:42:59;12.80;99.90
14188;DHT22;7175;51.978;5.330;2023-11-19T03:45:27;12.80;99.90
14188;DHT22;7175;51.978;5.330;2023-11-19T03:47:57;12.70;99.90
14188;DHT22;7175;51.978;5.330;2023-11-19T03:50:25;12.80;99.90
14188;DHT22;7175;51.978;5.330;2023-11-19T03:52:53;12.70;99.90
14188;DHT22;7175;51.978;5.330;2023-11-19T03:55:21;12.80;99.90
14188;DHT22;7175;51.978;5.330;2023-11-19T03:57:49;12.80;99.90
14188;DHT22;7175;51.978;5.330;2023-11-19T04:00:18;12.70;99.90
14188;DHT22;7175;51.978;5.330;2023-11-19T04:02:48;12.70;99.90
14188;DHT22;7175;51.978;5.330;2023-11-19T04:05:18;12.70;99.90
14188;DHT22;7175;51.978;5.330;2023-11-19T04:07:46;12.70;99.90
14188;DHT22;7175;51.978;5.330;2023-11-19T04:10:15;12.60;99.90
14188;DHT22;7175;51.978;5.330;2023-11-19T04:12:44;12.60;99.90
14188;DHT22;7175;51.978;5.330;2023-11-19T04:15:13;12.60;99.90
14188;DHT22;7175;51.978;5.330;2023-11-19T04:17:41;12.60;99.90
14188;DHT22;7175;51.978;5.330;2023-11-19T04:20:10;12.60;99.90
14188;DHT22;7175;51.978;5.330;2023-11-19T04:22:42;12.70;99.90
14188;DHT22;7175;51.978;5.330;2023-11-19T04:25:11;12.60;99.90
14188;DHT22;7175;51.978;5.330;2023-11-19T04:27:39;12.60;99.90
14188;DHT22;7175;51.978;5.330;2023-11-19T04:30:08;12.60;99.90
14188;DHT22;7175;51.978;5.330;2023-11-19T04:32:38;12.50;99.90
14188;DHT22;7175;51.978;5.330;2023-11-19T04:35:08;12.50;99.90
14188;DHT22;7175;51.978;5.330;2023-11-19T04:37:36;12.50;99.90
14188;DHT22;7175;51.978;5.330;2023-11-19T04:40:08;12.50;99.90
14188;DHT22;7175;51.978;5.330;2023-11-19T04:42:37;12.50;99.90
14188;DHT22;7175;51.978;5.330;2023-11-19T04:45:08;12.60;99.90
14188;DHT22;7175;51.978;5.330;2023-11-19T04:47:37;12.50;99.90
14188;DHT22;7175;51.978;5.330;2023-11-19T04:50:06;12.50;99.90
14188;DHT22;7175;51.978;5.330;2023-11-19T04:52:37;12.50;99.90
14188;DHT22;7175;51.978;5.330;2023-11-19T04:55:08;12.50;99.90
14188;DHT22;7175;51.978;5.330;2023-11-19T04:57:39;12.50;99.90
14188;DHT22;7175;51.978;5.330;2023-11-19T05:00:08;12.50;99.90
14188;DHT22;7175;51.978;5.330;2023-11-19T05:02:41;12.50;99.90
14188;DHT22;7175;51.978;5.330;2023-11-19T05:05:09;12.50;99.90
14188;DHT22;7175;51.978;5.330;2023-11-19T05:07:38;12.50;99.90
14188;DHT22;7175;51.978;5.330;2023-11-19T05:10:08;12.40;99.90
14188;DHT22;7175;51.978;5.330;2023-11-19T05:12:37;12.40;99.90
14188;DHT22;7175;51.978;5.330;2023-11-19T05:15:06;12.40;99.90
14188;DHT22;7175;51.978;5.330;2023-11-19T05:17:34;12.50;99.90
14188;DHT22;7175;51.978;5.330;2023-11-19T05:20:05;12.40;99.90
14188;DHT22;7175;51.978;5.330;2023-11-19T05:22:40;12.50;99.90
14188;DHT22;7175;51.978;5.330;2023-11-19T05:25:10;12.40;99.90
14188;DHT22;7175;51.978;5.330;2023-11-19T05:27:38;12.40;99.90
14188;DHT22;7175;51.978;5.330;2023-11-19T05:30:07;12.40;99.90
14188;DHT22;7175;51.978;5.330;2023-11-19T05:32:38;12.40;99.90
14188;DHT22;7175;51.978;5.330;2023-11-19T05:35:07;12.40;99.90
14188;DHT22;7175;51.978;5.330;2023-11-19T05:37:36;12.40;99.90
14188;DHT22;7175;51.978;5.330;2023-11-19T05:40:06;12.40;99.90
14188;DHT22;7175;51.978;5.330;2023-11-19T05:42:43;12.40;99.90
14188;DHT22;7175;51.978;5.330;2023-11-19T05:45:14;12.40;99.90
14188;DHT22;7175;51.978;5.330;2023-11-19T05:47:42;12.40;99.90
14188;DHT22;7175;51.978;5.330;2023-11-19T05:50:11;12.30;99.90
14188;DHT22;7175;51.978;5.330;2023-11-19T05:52:42;12.30;99.90
14188;DHT22;7175;51.978;5.330;2023-11-19T05:55:11;12.40;99.90
14188;DHT22;7175;51.978;5.330;2023-11-19T05:57:40;12.40;99.90
14188;DHT22;7175;51.978;5.330;2023-11-19T06:00:14;12.40;99.90
14188;DHT22;7175;51.978;5.330;2023-11-19T06:02:42;12.30;99.90
14188;DHT22;7175;51.978;5.330;2023-11-19T06:05:11;12.30;99.90
14188;DHT22;7175;51.978;5.330;2023-11-19T06:07:39;12.30;99.90
14188;DHT22;7175;51.978;5.330;2023-11-19T06:10:08;12.30;99.90
14188;DHT22;7175;51.978;5.330;2023-11-19T06:12:38;12.30;99.90
14188;DHT22;7175;51.978;5.330;2023-11-19T06:15:09;12.30;99.90
14188;DHT22;7175;51.978;5.330;2023-11-19T06:17:39;12.20;99.90
14188;DHT22;7175;51.978;5.330;2023-11-19T06:20:08;12.30;99.90
14188;DHT22;7175;51.978;5.330;2023-11-19T06:22:39;12.30;99.90
14188;DHT22;7175;51.978;5.330;2023-11-19T06:25:09;12.30;99.90
14188;DHT22;7175;51.978;5.330;2023-11-19T06:27:39;12.30;99.90
14188;DHT22;7175;51.978;5.330;2023-11-19T06:30:07;12.20;99.90
14188;DHT22;7175;51.978;5.330;2023-11-19T06:32:36;12.20;99.90
14188;DHT22;7175;51.978;5.330;2023-11-19T06:35:07;12.20;99.90
14188;DHT22;7175;51.978;5.330;2023-11-19T06:37:38;12.20;99.90
14188;DHT22;7175;51.978;5.330;2023-11-19T06:40:07;12.20;99.90
14188;DHT22;7175;51.978;5.330;2023-11-19T06:42:36;12.20;99.90
14188;DHT22;7175;51.978;5.330;2023-11-19T06:45:06;12.10;99.90
14188;DHT22;7175;51.978;5.330;2023-11-19T06:47:34;12.10;99.90
14188;DHT22;7175;51.978;5.330;2023-11-19T06:50:02;12.10;99.90
14188;DHT22;7175;51.978;5.330;2023-11-19T06:52:33;12.10;99.90
14188;DHT22;7175;51.978;5.330;2023-11-19T06:55:05;12.10;99.90
14188;DHT22;7175;51.978;5.330;2023-11-19T06:57:34;12.10;99.90
14188;DHT22;7175;51.978;5.330;2023-11-19T07:00:05;12.10;99.90
14188;DHT22;7175;51.978;5.330;2023-11-19T07:02:33;12.10;99.90
14188;DHT22;7175;51.978;5.330;2023-11-19T07:05:01;12.10;99.90
14188;DHT22;7175;51.978;5.330;2023-11-19T07:07:31;12.20;99.90
14188;DHT22;7175;51.978;5.330;2023-11-19T07:10:02;12.20;99.90
14188;DHT22;7175;51.978;5.330;2023-11-19T07:12:31;12.10;99.90
14188;DHT22;7175;51.978;5.330;2023-11-19T07:14:59;12.10;99.90
14188;DHT22;7175;51.978;5.330;2023-11-19T07:17:29;12.10;99.90
14188;DHT22;7175;51.978;5.330;2023-11-19T07:19:57;12.00;99.90
14188;DHT22;7175;51.978;5.330;2023-11-19T07:22:26;12.10;99.90
14188;DHT22;7175;51.978;5.330;2023-11-19T07:24:56;12.20;99.90
14188;DHT22;7175;51.978;5.330;2023-11-19T07:27:27;12.20;99.90
14188;DHT22;7175;51.978;5.330;2023-11-19T07:29:55;12.30;99.90
14188;DHT22;7175;51.978;5.330;2023-11-19T07:32:24;12.30;99.90
14188;DHT22;7175;51.978;5.330;2023-11-19T07:34:52;12.40;99.90
14188;DHT22;7175;51.978;5.330;2023-11-19T07:37:21;12.40;99.90
14188;DHT22;7175;51.978;5.330;2023-11-19T07:39:49;12.50;99.90
14188;DHT22;7175;51.978;5.330;2023-11-19T07:42:17;12.50;99.90
14188;DHT22;7175;51.978;5.330;2023-11-19T07:44:47;12.50;99.90
14188;DHT22;7175;51.978;5.330;2023-11-19T07:47:15;12.60;99.90
14188;DHT22;7175;51.978;5.330;2023-11-19T07:49:43;12.60;99.90
14188;DHT22;7175;51.978;5.330;2023-11-19T07:52:11;12.60;99.90
14188;DHT22;7175;51.978;5.330;2023-11-19T07:54:42;12.70;99.90
14188;DHT22;7175;51.978;5.330;2023-11-19T07:57:10;12.70;99.90
14188;DHT22;7175;51.978;5.330;2023-11-19T07:59:39;12.60;99.90
14188;DHT22;7175;51.978;5.330;2023-11-19T08:02:10;12.70;99.90
14188;DHT22;7175;51.978;5.330;2023-11-19T08:04:38;12.70;99.90
14188;DHT22;7175;51.978;5.330;2023-11-19T08:07:11;12.70;99.90
14188;DHT22;7175;51.978;5.330;2023-11-19T08:09:39;12.70;99.90
14188;DHT22;7175;51.978;5.330;2023-11-19T08:12:08;12.70;99.90
14188;DHT22;7175;51.978;5.330;2023-11-19T08:14:36;12.70;99.90
14188;DHT22;7175;51.978;5.330;2023-11-19T08:17:04;12.70;99.90
14188;DHT22;7175;51.978;5.330;2023-11-19T08:19:34;12.70;99.90
14188;DHT22;7175;51.978;5.330;2023-11-19T08:22:09;12.80;99.90
14188;DHT22;7175;51.978;5.330;2023-11-19T08:24:37;12.80;99.90
14188;DHT22;7175;51.978;5.330;2023-11-19T08:27:05;12.80;99.90
14188;DHT22;7175;51.978;5.330;2023-11-19T08:29:33;12.80;99.90
14188;DHT22;7175;51.978;5.330;2023-11-19T08:32:02;12.80;99.90
14188;DHT22;7175;51.978;5.330;2023-11-19T08:34:30;12.80;99.90
14188;DHT22;7175;51.978;5.330;2023-11-19T08:37:00;12.80;99.90
14188;DHT22;7175;51.978;5.330;2023-11-19T08:39:28;12.80;99.90
14188;DHT22;7175;51.978;5.330;2023-11-19T08:41:57;12.90;99.90
14188;DHT22;7175;51.978;5.330;2023-11-19T08:44:25;13.00;99.90
14188;DHT22;7175;51.978;5.330;2023-11-19T08:46:54;13.00;99.90
14188;DHT22;7175;51.978;5.330;2023-11-19T08:49:22;13.00;99.90
14188;DHT22;7175;51.978;5.330;2023-11-19T08:51:50;13.00;99.90
14188;DHT22;7175;51.978;5.330;2023-11-19T08:54:20;13.00;99.90
14188;DHT22;7175;51.978;5.330;2023-11-19T08:56:49;13.00;99.90
14188;DHT22;7175;51.978;5.330;2023-11-19T08:59:17;13.10;99.90
14188;DHT22;7175;51.978;5.330;2023-11-19T09:01:45;13.10;99.90
14188;DHT22;7175;51.978;5.330;2023-11-19T09:04:14;13.10;99.90
14188;DHT22;7175;51.978;5.330;2023-11-19T09:06:43;13.20;99.90
14188;DHT22;7175;51.978;5.330;2023-11-19T09:09:11;13.10;99.90
14188;DHT22;7175;51.978;5.330;2023-11-19T09:11:41;13.20;99.90
14188;DHT22;7175;51.978;5.330;2023-11-19T09:14:09;13.20;99.90
14188;DHT22;7175;51.978;5.330;2023-11-19T09:16:37;13.20;99.90
14188;DHT22;7175;51.978;5.330;2023-11-19T09:19:08;13.30;99.90
14188;DHT22;7175;51.978;5.330;2023-11-19T09:21:36;13.40;99.90
14188;DHT22;7175;51.978;5.330;2023-11-19T09:24:05;13.30;99.90
14188;DHT22;7175;51.978;5.330;2023-11-19T09:26:34;13.40;99.90
14188;DHT22;7175;51.978;5.330;2023-11-19T09:29:04;13.50;99.90
14188;DHT22;7175;51.978;5.330;2023-11-19T09:31:32;13.60;99.90
14188;DHT22;7175;51.978;5.330;2023-11-19T09:34:01;13.80;99.90
14188;DHT22;7175;51.978;5.330;2023-11-19T09:36:29;13.90;99.90
14188;DHT22;7175;51.978;5.330;2023-11-19T09:38:58;13.90;99.90
14188;DHT22;7175;51.978;5.330;2023-11-19T09:41:30;13.90;99.90
14188;DHT22;7175;51.978;5.330;2023-11-19T09:43:58;13.90;99.90
14188;DHT22;7175;51.978;5.330;2023-11-19T09:46:28;13.90;99.90
14188;DHT22;7175;51.978;5.330;2023-11-19T09:48:57;13.90;99.90
14188;DHT22;7175;51.978;5.330;2023-11-19T09:51:26;14.00;99.90
14188;DHT22;7175;51.978;5.330;2023-11-19T09:53:54;14.00;99.90
14188;DHT22;7175;51.978;5.330;2023-11-19T09:56:23;13.90;99.90
14188;DHT22;7175;51.978;5.330;2023-11-19T09:58:51;13.90;99.90
14188;DHT22;7175;51.978;5.330;2023-11-19T10:01:20;13.90;99.90
14188;DHT22;7175;51.978;5.330;2023-11-19T10:03:56;13.90;99.90
14188;DHT22;7175;51.978;5.330;2023-11-19T10:06:25;13.80;99.90
14188;DHT22;7175;51.978;5.330;2023-11-19T10:08:54;13.80;99.90
14188;DHT22;7175;51.978;5.330;2023-11-19T10:11:24;13.90;99.90
14188;DHT22;7175;51.978;5.330;2023-11-19T10:13:54;14.00;99.90
14188;DHT22;7175;51.978;5.330;2023-11-19T10:16:28;14.00;99.90
14188;DHT22;7175;51.978;5.330;2023-11-19T10:18:59;14.20;99.90
14188;DHT22;7175;51.978;5.330;2023-11-19T10:21:27;14.10;99.90
14188;DHT22;7175;51.978;5.330;2023-11-19T10:23:58;14.20;99.90
14188;DHT22;7175;51.978;5.330;2023-11-19T10:26:28;14.10;99.90
14188;DHT22;7175;51.978;5.330;2023-11-19T10:28:56;14.20;99.90
14188;DHT22;7175;51.978;5.330;2023-11-19T10:31:24;14.20;99.90
14188;DHT22;7175;51.978;5.330;2023-11-19T10:33:54;14.30;99.90
14188;DHT22;7175;51.978;5.330;2023-11-19T10:36:37;14.40;99.90
14188;DHT22;7175;51.978;5.330;2023-11-19T10:39:06;14.40;99.90
14188;DHT22;7175;51.978;5.330;2023-11-19T10:41:36;14.40;99.90
14188;DHT22;7175;51.978;5.330;2023-11-19T10:44:04;14.40;99.90
14188;DHT22;7175;51.978;5.330;2023-11-19T10:46:37;14.40;99.90
14188;DHT22;7175;51.978;5.330;2023-11-19T10:49:07;14.50;99.90
14188;DHT22;7175;51.978;5.330;2023-11-19T10:51:41;14.40;99.90
14188;DHT22;7175;51.978;5.330;2023-11-19T10:54:11;14.50;99.90
14188;DHT22;7175;51.978;5.330;2023-11-19T10:56:43;14.50;99.90
14188;DHT22;7175;51.978;5.330;2023-11-19T10:59:13;14.50;99.90
14188;DHT22;7175;51.978;5.330;2023-11-19T11:01:48;14.60;99.90
14188;DHT22;7175;51.978;5.330;2023-11-19T11:04:23;14.60;99.90
14188;DHT22;7175;51.978;5.330;2023-11-19T11:06:58;14.60;99.90
14188;DHT22;7175;51.978;5.330;2023-11-19T11:09:27;14.60;99.90
14188;DHT22;7175;51.978;5.330;2023-11-19T11:11:57;14.70;99.90
14188;DHT22;7175;51.978;5.330;2023-11-19T11:14:27;14.70;99.90
14188;DHT22;7175;51.978;5.330;2023-11-19T11:16:56;14.60;99.90
14188;DHT22;7175;51.978;5.330;2023-11-19T11:19:26;14.60;99.90
14188;DHT22;7175;51.978;5.330;2023-11-19T11:21:57;14.50;99.90
14188;DHT22;7175;51.978;5.330;2023-11-19T11:27:38;14.50;99.90
14188;DHT22;7175;51.978;5.330;2023-11-19T11:30:17;14.40;99.90
14188;DHT22;7175;51.978;5.330;2023-11-19T11:32:54;14.50;99.90
14188;DHT22;7175;51.978;5.330;2023-11-19T11:35:33;14.40;99.90
14188;DHT22;7175;51.978;5.330;2023-11-19T11:38:07;14.30;99.90
14188;DHT22;7175;51.978;5.330;2023-11-19T11:40:36;14.30;99.90
14188;DHT22;7175;51.978;5.330;2023-11-19T11:43:43;14.20;99.90
14188;DHT22;7175;51.978;5.330;2023-11-19T11:49:13;14.20;99.90
14188;DHT22;7175;51.978;5.330;2023-11-19T11:52:01;14.20;99.90
14188;DHT22;7175;51.978;5.330;2023-11-19T11:54:35;14.30;99.90
14188;DHT22;7175;51.978;5.330;2023-11-19T11:57:07;14.30;99.90
14188;DHT22;7175;51.978;5.330;2023-11-19T11:59:51;14.50;99.90
14188;DHT22;7175;51.978;5.330;2023-11-19T12:02:21;14.90;99.90
14188;DHT22;7175;51.978;5.330;2023-11-19T12:04:52;15.00;99.90
14188;DHT22;7175;51.978;5.330;2023-11-19T12:07:22;15.00;99.90
14188;DHT22;7175;51.978;5.330;2023-11-19T12:10:06;15.10;99.90
14188;DHT22;7175;51.978;5.330;2023-11-19T12:12:36;15.00;99.90
14188;DHT22;7175;51.978;5.330;2023-11-19T12:15:09;15.20;99.90
14188;DHT22;7175;51.978;5.330;2023-11-19T12:17:48;15.30;99.90
14188;DHT22;7175;51.978;5.330;2023-11-19T12:20:24;15.10;99.90
14188;DHT22;7175;51.978;5.330;2023-11-19T12:22:55;15.10;99.90
14188;DHT22;7175;51.978;5.330;2023-11-19T12:25:34;15.20;99.90
14188;DHT22;7175;51.978;5.330;2023-11-19T12:28:03;15.10;99.90
14188;DHT22;7175;51.978;5.330;2023-11-19T12:30:35;15.20;99.90
14188;DHT22;7175;51.978;5.330;2023-11-19T12:33:08;15.10;99.90
14188;DHT22;7175;51.978;5.330;2023-11-19T12:35:39;15.10;99.90
14188;DHT22;7175;51.978;5.330;2023-11-19T12:38:18;15.10;99.90
14188;DHT22;7175;51.978;5.330;2023-11-19T12:41:04;15.30;99.90
14188;DHT22;7175;51.978;5.330;2023-11-19T12:43:39;15.30;99.90
14188;DHT22;7175;51.978;5.330;2023-11-19T12:46:18;15.40;99.90
14188;DHT22;7175;51.978;5.330;2023-11-19T12:48:51;15.50;99.90
14188;DHT22;7175;51.978;5.330;2023-11-19T12:51:20;15.10;99.90
14188;DHT22;7175;51.978;5.330;2023-11-19T12:54:02;15.00;99.90
14188;DHT22;7175;51.978;5.330;2023-11-19T12:56:33;15.00;99.90
14188;DHT22;7175;51.978;5.330;2023-11-19T12:59:12;15.00;99.90
14188;DHT22;7175;51.978;5.330;2023-11-19T13:01:40;14.80;99.90
14188;DHT22;7175;51.978;5.330;2023-11-19T13:04:18;14.80;99.90
14188;DHT22;7175;51.978;5.330;2023-11-19T13:06:50;14.70;99.90
14188;DHT22;7175;51.978;5.330;2023-11-19T13:09:22;14.60;99.90
14188;DHT22;7175;51.978;5.330;2023-11-19T13:11:53;14.60;99.90
14188;DHT22;7175;51.978;5.330;2023-11-19T13:14:22;14.60;99.90
14188;DHT22;7175;51.978;5.330;2023-11-19T13:16:51;14.50;99.90
14188;DHT22;7175;51.978;5.330;2023-11-19T13:19:23;14.50;99.90
14188;DHT22;7175;51.978;5.330;2023-11-19T13:21:53;14.40;99.90
14188;DHT22;7175;51.978;5.330;2023-11-19T13:24:21;14.40;99.90
14188;DHT22;7175;51.978;5.330;2023-11-19T13:26:51;14.40;99.90
14188;DHT22;7175;51.978;5.330;2023-11-19T13:29:20;14.40;99.90
14188;DHT22;7175;51.978;5.330;2023-11-19T13:31:48;14.50;99.90
14188;DHT22;7175;51.978;5.330;2023-11-19T13:34:17;14.50;99.90
14188;DHT22;7175;51.978;5.330;2023-11-19T13:36:45;14.40;99.90
14188;DHT22;7175;51.978;5.330;2023-11-19T13:39:13;14.30;99.90
14188;DHT22;7175;51.978;5.330;2023-11-19T13:41:49;14.20;99.90
14188;DHT22;7175;51.978;5.330;2023-11-19T13:44:20;14.30;99.90
14188;DHT22;7175;51.978;5.330;2023-11-19T13:46:48;14.20;99.90
14188;DHT22;7175;51.978;5.330;2023-11-19T13:49:17;14.10;99.90
14188;DHT22;7175;51.978;5.330;2023-11-19T13:51:49;14.10;99.90
14188;DHT22;7175;51.978;5.330;2023-11-19T13:54:17;14.10;99.90
14188;DHT22;7175;51.978;5.330;2023-11-19T13:56:47;14.20;99.90
14188;DHT22;7175;51.978;5.330;2023-11-19T13:59:16;14.10;99.90
14188;DHT22;7175;51.978;5.330;2023-11-19T14:01:46;14.20;99.90
14188;DHT22;7175;51.978;5.330;2023-11-19T14:04:15;14.30;99.90
14188;DHT22;7175;51.978;5.330;2023-11-19T14:06:45;14.20;99.90
14188;DHT22;7175;51.978;5.330;2023-11-19T14:09:14;14.20;99.90
14188;DHT22;7175;51.978;5.330;2023-11-19T14:11:45;14.20;99.90
14188;DHT22;7175;51.978;5.330;2023-11-19T14:14:15;14.10;99.90
14188;DHT22;7175;51.978;5.330;2023-11-19T14:16:48;14.10;99.90
14188;DHT22;7175;51.978;5.330;2023-11-19T14:19:39;14.00;99.90
14188;DHT22;7175;51.978;5.330;2023-11-19T14:22:08;14.00;99.90
14188;DHT22;7175;51.978;5.330;2023-11-19T14:24:36;14.00;99.90
14188;DHT22;7175;51.978;5.330;2023-11-19T14:27:05;13.90;99.90
14188;DHT22;7175;51.978;5.330;2023-11-19T14:29:36;13.90;99.90
14188;DHT22;7175;51.978;5.330;2023-11-19T14:32:06;13.80;99.90
14188;DHT22;7175;51.978;5.330;2023-11-19T14:34:34;13.80;99.90
14188;DHT22;7175;51.978;5.330;2023-11-19T14:37:02;13.70;99.90
14188;DHT22;7175;51.978;5.330;2023-11-19T14:39:30;13.70;99.90
14188;DHT22;7175;51.978;5.330;2023-11-19T14:41:59;13.70;99.90
14188;DHT22;7175;51.978;5.330;2023-11-19T14:44:31;13.60;99.90
14188;DHT22;7175;51.978;5.330;2023-11-19T14:46:59;13.60;99.90
14188;DHT22;7175;51.978;5.330;2023-11-19T14:49:30;13.60;99.90
14188;DHT22;7175;51.978;5.330;2023-11-19T14:51:59;13.60;99.90
14188;DHT22;7175;51.978;5.330;2023-11-19T14:54:29;13.60;99.90
14188;DHT22;7175;51.978;5.330;2023-11-19T14:56:58;13.70;99.90
14188;DHT22;7175;51.978;5.330;2023-11-19T14:59:27;13.70;99.90
14188;DHT22;7175;51.978;5.330;2023-11-19T15:01:55;13.70;99.90
14188;DHT22;7175;51.978;5.330;2023-11-19T15:04:24;13.70;99.90
14188;DHT22;7175;51.978;5.330;2023-11-19T15:06:56;13.70;99.90
14188;DHT22;7175;51.978;5.330;2023-11-19T15:09:24;13.70;99.90
14188;DHT22;7175;51.978;5.330;2023-11-19T15:11:53;13.80;99.90
14188;DHT22;7175;51.978;5.330;2023-11-19T15:14:22;13.70;99.90
14188;DHT22;7175;51.978;5.330;2023-11-19T15:16:50;13.70;99.90
14188;DHT22;7175;51.978;5.330;2023-11-19T15:19:18;13.70;99.90
14188;DHT22;7175;51.978;5.330;2023-11-19T15:21:47;13.70;99.90
14188;DHT22;7175;51.978;5.330;2023-11-19T15:24:17;13.70;99.90
14188;DHT22;7175;51.978;5.330;2023-11-19T15:26:45;13.70;99.90
14188;DHT22;7175;51.978;5.330;2023-11-19T15:29:13;13.70;99.90
14188;DHT22;7175;51.978;5.330;2023-11-19T15:31:41;13.70;99.90
14188;DHT22;7175;51.978;5.330;2023-11-19T15:34:09;13.70;99.90
14188;DHT22;7175;51.978;5.330;2023-11-19T15:41:31;13.60;99.90
14188;DHT22;7175;51.978;5.330;2023-11-19T15:43:59;13.60;99.90
14188;DHT22;7175;51.978;5.330;2023-11-19T15:46:31;13.60;99.90
14188;DHT22;7175;51.978;5.330;2023-11-19T15:48:59;13.60;99.90
14188;DHT22;7175;51.978;5.330;2023-11-19T15:51:27;13.50;99.90
14188;DHT22;7175;51.978;5.330;2023-11-19T15:53:55;13.50;99.90
14188;DHT22;7175;51.978;5.330;2023-11-19T15:56:23;13.50;99.90
14188;DHT22;7175;51.978;5.330;2023-11-19T15:58:53;13.50;99.90
14188;DHT22;7175;51.978;5.330;2023-11-19T16:01:21;13.50;99.90
14188;DHT22;7175;51.978;5.330;2023-11-19T16:03:50;13.50;99.90
14188;DHT22;7175;51.978;5.330;2023-11-19T16:06:19;13.40;99.90
14188;DHT22;7175;51.978;5.330;2023-11-19T16:08:47;13.40;99.90
14188;DHT22;7175;51.978;5.330;2023-11-19T16:11:16;13.30;99.90
14188;DHT22;7175;51.978;5.330;2023-11-19T16:13:45;13.30;99.90